sensor_id;sensor_type;location;lat;lon;timestamp;P1;durP1;ratioP1;P2;durP2;ratioP2
1567;SDS011;777;47.156;8.326;2023-04-05T00:01:25;9.25;;;6.10;;
1567;SDS011;777;47.156;8.326;2023-04-05T00:03:53;6.82;;;5.85;;
1567;SDS011;777;47.156;8.326;2023-04-05T00:06:22;7.60;;;5.32;;
1567;SDS011;777;47.156;8.326;2023-04-05T00:08:51;6.55;;;5.60;;
1567;SDS011;777;47.156;8.326;2023-04-05T00:11:21;10.93;;;8.45;;
1567;SDS011;777;47.156;8.326;2023-04-05T00:13:48;12.30;;;8.35;;
1567;SDS011;777;47.156;8.326;2023-04-05T00:16:16;8.63;;;6.22;;
1567;SDS011;777;47.156;8.326;2023-04-05T00:18:45;7.10;;;5.25;;
1567;SDS011;777;47.156;8.326;2023-04-05T00:21:15;7.45;;;5.20;;
1567;SDS011;777;47.156;8.326;2023-04-05T00:23:45;6.60;;;5.40;;
1567;SDS011;777;47.156;8.326;2023-04-05T00:26:12;7.45;;;5.22;;
1567;SDS011;777;47.156;8.326;2023-04-05T00:28:45;7.18;;;6.10;;
1567;SDS011;777;47.156;8.326;2023-04-05T00:31:13;7.00;;;4.93;;
1567;SDS011;777;47.156;8.326;2023-04-05T00:33:40;7.38;;;5.70;;
1567;SDS011;777;47.156;8.326;2023-04-05T00:36:08;6.57;;;5.63;;
1567;SDS011;777;47.156;8.326;2023-04-05T00:38:36;7.38;;;5.38;;
1567;SDS011;777;47.156;8.326;2023-04-05T00:41:04;7.57;;;6.03;;
1567;SDS011;777;47.156;8.326;2023-04-05T00:43:31;7.60;;;5.70;;
1567;SDS011;777;47.156;8.326;2023-04-05T00:45:59;7.53;;;6.05;;
1567;SDS011;777;47.156;8.326;2023-04-05T00:48:27;6.47;;;5.55;;
1567;SDS011;777;47.156;8.326;2023-04-05T00:50:54;6.88;;;5.57;;
1567;SDS011;777;47.156;8.326;2023-04-05T00:53:23;10.57;;;6.20;;
1567;SDS011;777;47.156;8.326;2023-04-05T00:55:51;7.15;;;5.43;;
1567;SDS011;777;47.156;8.326;2023-04-05T00:58:19;6.40;;;5.60;;
1567;SDS011;777;47.156;8.326;2023-04-05T01:00:51;8.82;;;5.65;;
1567;SDS011;777;47.156;8.326;2023-04-05T01:03:25;6.72;;;6.03;;
1567;SDS011;777;47.156;8.326;2023-04-05T01:05:59;9.18;;;5.85;;
1567;SDS011;777;47.156;8.326;2023-04-05T01:08:36;10.70;;;6.25;;
1567;SDS011;777;47.156;8.326;2023-04-05T01:11:10;8.35;;;6.20;;
1567;SDS011;777;47.156;8.326;2023-04-05T01:13:38;7.68;;;5.30;;
1567;SDS011;777;47.156;8.326;2023-04-05T01:16:05;7.38;;;5.55;;
1567;SDS011;777;47.156;8.326;2023-04-05T01:18:34;8.75;;;5.13;;
1567;SDS011;777;47.156;8.326;2023-04-05T01:21:06;6.70;;;4.90;;
1567;SDS011;777;47.156;8.326;2023-04-05T01:23:46;7.13;;;5.40;;
1567;SDS011;777;47.156;8.326;2023-04-05T01:26:39;8.68;;;5.40;;
1567;SDS011;777;47.156;8.326;2023-04-05T01:29:28;6.15;;;5.53;;
1567;SDS011;777;47.156;8.326;2023-04-05T01:32:07;6.78;;;5.10;;
1567;SDS011;777;47.156;8.326;2023-04-05T01:34:43;7.43;;;5.57;;
1567;SDS011;777;47.156;8.326;2023-04-05T01:37:17;8.27;;;5.70;;
1567;SDS011;777;47.156;8.326;2023-04-05T01:39:46;8.43;;;5.63;;
1567;SDS011;777;47.156;8.326;2023-04-05T01:42:15;6.30;;;5.05;;
1567;SDS011;777;47.156;8.326;2023-04-05T01:44:49;8.75;;;5.13;;
1567;SDS011;777;47.156;8.326;2023-04-05T01:47:17;8.27;;;5.20;;
1567;SDS011;777;47.156;8.326;2023-04-05T01:49:44;13.52;;;5.50;;
1567;SDS011;777;47.156;8.326;2023-04-05T01:52:12;7.97;;;5.50;;
1567;SDS011;777;47.156;8.326;2023-04-05T01:54:39;5.45;;;4.85;;
1567;SDS011;777;47.156;8.326;2023-04-05T01:57:07;7.20;;;5.28;;
1567;SDS011;777;47.156;8.326;2023-04-05T01:59:34;6.40;;;5.43;;
1567;SDS011;777;47.156;8.326;2023-04-05T02:02:03;7.65;;;6.10;;
1567;SDS011;777;47.156;8.326;2023-04-05T02:04:31;8.90;;;5.70;;
1567;SDS011;777;47.156;8.326;2023-04-05T02:06:58;7.95;;;5.95;;
1567;SDS011;777;47.156;8.326;2023-04-05T02:09:25;7.57;;;6.10;;
1567;SDS011;777;47.156;8.326;2023-04-05T02:11:52;6.47;;;5.57;;
1567;SDS011;777;47.156;8.326;2023-04-05T02:14:19;7.05;;;5.28;;
1567;SDS011;777;47.156;8.326;2023-04-05T02:16:46;5.90;;;5.28;;
1567;SDS011;777;47.156;8.326;2023-04-05T02:19:14;6.30;;;5.38;;
1567;SDS011;777;47.156;8.326;2023-04-05T02:21:47;7.90;;;5.38;;
1567;SDS011;777;47.156;8.326;2023-04-05T02:24:14;7.10;;;5.50;;
1567;SDS011;777;47.156;8.326;2023-04-05T02:26:43;7.93;;;5.50;;
1567;SDS011;777;47.156;8.326;2023-04-05T02:29:10;7.20;;;5.63;;
1567;SDS011;777;47.156;8.326;2023-04-05T02:31:37;9.07;;;5.15;;
1567;SDS011;777;47.156;8.326;2023-04-05T02:34:04;6.63;;;5.78;;
1567;SDS011;777;47.156;8.326;2023-04-05T02:36:34;8.05;;;6.35;;
1567;SDS011;777;47.156;8.326;2023-04-05T02:39:01;8.93;;;6.38;;
1567;SDS011;777;47.156;8.326;2023-04-05T02:41:28;8.10;;;6.38;;
1567;SDS011;777;47.156;8.326;2023-04-05T02:43:55;8.55;;;6.65;;
1567;SDS011;777;47.156;8.326;2023-04-05T02:46:23;8.27;;;6.32;;
1567;SDS011;777;47.156;8.326;2023-04-05T02:48:50;9.10;;;6.50;;
1567;SDS011;777;47.156;8.326;2023-04-05T02:51:17;9.45;;;6.88;;
1567;SDS011;777;47.156;8.326;2023-04-05T02:53:46;7.82;;;6.18;;
1567;SDS011;777;47.156;8.326;2023-04-05T02:56:14;9.98;;;6.32;;
1567;SDS011;777;47.156;8.326;2023-04-05T02:58:43;8.15;;;6.85;;
1567;SDS011;777;47.156;8.326;2023-04-05T03:01:13;9.15;;;6.97;;
1567;SDS011;777;47.156;8.326;2023-04-05T03:03:42;7.68;;;6.85;;
1567;SDS011;777;47.156;8.326;2023-04-05T03:06:10;8.32;;;6.57;;
1567;SDS011;777;47.156;8.326;2023-04-05T03:08:41;9.45;;;6.63;;
1567;SDS011;777;47.156;8.326;2023-04-05T03:11:14;7.65;;;6.68;;
1567;SDS011;777;47.156;8.326;2023-04-05T03:13:45;9.25;;;7.30;;
1567;SDS011;777;47.156;8.326;2023-04-05T03:16:25;8.63;;;6.80;;
1567;SDS011;777;47.156;8.326;2023-04-05T03:18:53;7.43;;;6.28;;
1567;SDS011;777;47.156;8.326;2023-04-05T03:21:22;9.35;;;7.10;;
1567;SDS011;777;47.156;8.326;2023-04-05T03:24:00;7.93;;;6.88;;
1567;SDS011;777;47.156;8.326;2023-04-05T03:26:36;7.88;;;6.95;;
1567;SDS011;777;47.156;8.326;2023-04-05T03:29:03;7.90;;;6.45;;
1567;SDS011;777;47.156;8.326;2023-04-05T03:31:33;7.15;;;6.18;;
1567;SDS011;777;47.156;8.326;2023-04-05T03:34:04;8.70;;;6.93;;
1567;SDS011;777;47.156;8.326;2023-04-05T03:36:40;9.25;;;6.43;;
1567;SDS011;777;47.156;8.326;2023-04-05T03:39:14;8.18;;;6.78;;
1567;SDS011;777;47.156;8.326;2023-04-05T03:41:43;9.57;;;6.47;;
1567;SDS011;777;47.156;8.326;2023-04-05T03:44:10;7.00;;;6.30;;
1567;SDS011;777;47.156;8.326;2023-04-05T03:46:37;8.98;;;6.50;;
1567;SDS011;777;47.156;8.326;2023-04-05T03:49:05;8.07;;;6.57;;
1567;SDS011;777;47.156;8.326;2023-04-05T03:51:32;9.32;;;6.95;;
1567;SDS011;777;47.156;8.326;2023-04-05T03:53:59;9.23;;;6.47;;
1567;SDS011;777;47.156;8.326;2023-04-05T03:56:31;7.57;;;6.78;;
1567;SDS011;777;47.156;8.326;2023-04-05T03:59:08;7.88;;;6.05;;
1567;SDS011;777;47.156;8.326;2023-04-05T04:01:36;7.18;;;5.75;;
1567;SDS011;777;47.156;8.326;2023-04-05T04:04:04;7.32;;;6.20;;
1567;SDS011;777;47.156;8.326;2023-04-05T04:06:31;7.53;;;6.68;;
1567;SDS011;777;47.156;8.326;2023-04-05T04:08:58;8.07;;;6.22;;
1567;SDS011;777;47.156;8.326;2023-04-05T04:11:27;8.23;;;7.20;;
1567;SDS011;777;47.156;8.326;2023-04-05T04:13:55;9.25;;;6.60;;
1567;SDS011;777;47.156;8.326;2023-04-05T04:16:33;10.57;;;7.18;;
1567;SDS011;777;47.156;8.326;2023-04-05T04:19:15;7.80;;;7.00;;
1567;SDS011;777;47.156;8.326;2023-04-05T04:22:02;8.10;;;7.30;;
1567;SDS011;777;47.156;8.326;2023-04-05T04:24:48;7.53;;;6.63;;
1567;SDS011;777;47.156;8.326;2023-04-05T04:27:34;8.63;;;7.30;;
1567;SDS011;777;47.156;8.326;2023-04-05T04:30:01;10.13;;;7.72;;
1567;SDS011;777;47.156;8.326;2023-04-05T04:32:59;9.27;;;7.75;;
1567;SDS011;777;47.156;8.326;2023-04-05T04:35:56;9.35;;;8.43;;
1567;SDS011;777;47.156;8.326;2023-04-05T04:38:45;9.32;;;8.40;;
1567;SDS011;777;47.156;8.326;2023-04-05T04:41:31;10.30;;;8.68;;
1567;SDS011;777;47.156;8.326;2023-04-05T04:44:08;11.82;;;9.35;;
1567;SDS011;777;47.156;8.326;2023-04-05T04:46:57;10.93;;;8.32;;
1567;SDS011;777;47.156;8.326;2023-04-05T04:49:44;11.82;;;9.20;;
1567;SDS011;777;47.156;8.326;2023-04-05T04:52:11;10.00;;;8.90;;
1567;SDS011;777;47.156;8.326;2023-04-05T04:54:40;10.68;;;8.95;;
1567;SDS011;777;47.156;8.326;2023-04-05T04:57:07;10.55;;;9.38;;
1567;SDS011;777;47.156;8.326;2023-04-05T04:59:34;11.63;;;9.00;;
1567;SDS011;777;47.156;8.326;2023-04-05T05:02:03;12.60;;;9.60;;
1567;SDS011;777;47.156;8.326;2023-04-05T05:04:32;10.77;;;8.98;;
1567;SDS011;777;47.156;8.326;2023-04-05T05:07:01;11.73;;;9.63;;
1567;SDS011;777;47.156;8.326;2023-04-05T05:09:31;10.25;;;9.10;;
1567;SDS011;777;47.156;8.326;2023-04-05T05:11:58;10.60;;;8.40;;
1567;SDS011;777;47.156;8.326;2023-04-05T05:14:25;10.52;;;8.93;;
1567;SDS011;777;47.156;8.326;2023-04-05T05:16:52;13.15;;;9.45;;
1567;SDS011;777;47.156;8.326;2023-04-05T05:19:25;9.75;;;8.55;;
1567;SDS011;777;47.156;8.326;2023-04-05T05:21:53;10.90;;;8.90;;
1567;SDS011;777;47.156;8.326;2023-04-05T05:24:22;11.00;;;9.07;;
1567;SDS011;777;47.156;8.326;2023-04-05T05:26:49;11.27;;;9.45;;
1567;SDS011;777;47.156;8.326;2023-04-05T05:29:17;9.75;;;8.63;;
1567;SDS011;777;47.156;8.326;2023-04-05T05:31:45;11.48;;;8.88;;
1567;SDS011;777;47.156;8.326;2023-04-05T05:34:12;10.68;;;9.30;;
1567;SDS011;777;47.156;8.326;2023-04-05T05:36:45;11.60;;;9.35;;
1567;SDS011;777;47.156;8.326;2023-04-05T05:39:12;11.65;;;8.75;;
1567;SDS011;777;47.156;8.326;2023-04-05T05:41:42;12.75;;;9.30;;
1567;SDS011;777;47.156;8.326;2023-04-05T05:44:09;9.32;;;8.43;;
1567;SDS011;777;47.156;8.326;2023-04-05T05:46:36;12.75;;;7.75;;
1567;SDS011;777;47.156;8.326;2023-04-05T05:49:03;15.27;;;7.63;;
1567;SDS011;777;47.156;8.326;2023-04-05T05:51:30;8.57;;;6.97;;
1567;SDS011;777;47.156;8.326;2023-04-05T05:53:58;11.63;;;7.07;;
1567;SDS011;777;47.156;8.326;2023-04-05T05:56:25;8.25;;;6.75;;
1567;SDS011;777;47.156;8.326;2023-04-05T05:58:54;10.95;;;6.95;;
1567;SDS011;777;47.156;8.326;2023-04-05T06:01:21;7.40;;;6.53;;
1567;SDS011;777;47.156;8.326;2023-04-05T06:03:52;6.65;;;6.00;;
1567;SDS011;777;47.156;8.326;2023-04-05T06:06:19;10.80;;;6.70;;
1567;SDS011;777;47.156;8.326;2023-04-05T06:08:47;7.90;;;6.28;;
1567;SDS011;777;47.156;8.326;2023-04-05T06:11:17;9.82;;;5.55;;
1567;SDS011;777;47.156;8.326;2023-04-05T06:13:46;7.85;;;5.93;;
1567;SDS011;777;47.156;8.326;2023-04-05T06:16:15;8.90;;;5.80;;
1567;SDS011;777;47.156;8.326;2023-04-05T06:18:42;9.63;;;6.38;;
1567;SDS011;777;47.156;8.326;2023-04-05T06:21:10;7.47;;;5.75;;
1567;SDS011;777;47.156;8.326;2023-04-05T06:23:37;9.85;;;5.78;;
1567;SDS011;777;47.156;8.326;2023-04-05T06:26:05;6.25;;;4.95;;
1567;SDS011;777;47.156;8.326;2023-04-05T06:28:32;6.85;;;5.10;;
1567;SDS011;777;47.156;8.326;2023-04-05T06:30:59;9.95;;;5.20;;
1567;SDS011;777;47.156;8.326;2023-04-05T06:33:28;9.13;;;5.15;;
1567;SDS011;777;47.156;8.326;2023-04-05T06:35:55;4.97;;;4.10;;
1567;SDS011;777;47.156;8.326;2023-04-05T06:38:22;6.05;;;4.28;;
1567;SDS011;777;47.156;8.326;2023-04-05T06:40:49;7.93;;;4.35;;
1567;SDS011;777;47.156;8.326;2023-04-05T06:43:16;7.22;;;3.97;;
1567;SDS011;777;47.156;8.326;2023-04-05T06:45:43;7.45;;;3.92;;
1567;SDS011;777;47.156;8.326;2023-04-05T06:48:10;6.90;;;4.15;;
1567;SDS011;777;47.156;8.326;2023-04-05T06:50:39;7.05;;;3.78;;
1567;SDS011;777;47.156;8.326;2023-04-05T06:53:06;4.75;;;3.92;;
1567;SDS011;777;47.156;8.326;2023-04-05T06:55:33;5.00;;;3.67;;
1567;SDS011;777;47.156;8.326;2023-04-05T06:58:01;5.65;;;3.90;;
1567;SDS011;777;47.156;8.326;2023-04-05T07:00:28;4.32;;;3.25;;
1567;SDS011;777;47.156;8.326;2023-04-05T07:02:55;6.38;;;3.60;;
1567;SDS011;777;47.156;8.326;2023-04-05T07:05:22;9.48;;;3.25;;
1567;SDS011;777;47.156;8.326;2023-04-05T07:07:50;4.82;;;3.28;;
1567;SDS011;777;47.156;8.326;2023-04-05T07:10:17;5.93;;;3.45;;
1567;SDS011;777;47.156;8.326;2023-04-05T07:12:45;4.72;;;3.20;;
1567;SDS011;777;47.156;8.326;2023-04-05T07:15:12;3.65;;;3.03;;
1567;SDS011;777;47.156;8.326;2023-04-05T07:17:39;5.25;;;3.60;;
1567;SDS011;777;47.156;8.326;2023-04-05T07:20:06;4.80;;;3.47;;
1567;SDS011;777;47.156;8.326;2023-04-05T07:22:34;5.35;;;3.78;;
1567;SDS011;777;47.156;8.326;2023-04-05T07:25:02;4.25;;;3.20;;
1567;SDS011;777;47.156;8.326;2023-04-05T07:27:29;4.85;;;3.47;;
1567;SDS011;777;47.156;8.326;2023-04-05T07:29:56;6.57;;;3.90;;
1567;SDS011;777;47.156;8.326;2023-04-05T07:32:23;5.63;;;3.83;;
1567;SDS011;777;47.156;8.326;2023-04-05T07:34:50;4.40;;;3.75;;
1567;SDS011;777;47.156;8.326;2023-04-05T07:37:17;4.97;;;3.65;;
1567;SDS011;777;47.156;8.326;2023-04-05T07:39:45;4.22;;;3.45;;
1567;SDS011;777;47.156;8.326;2023-04-05T07:42:13;5.93;;;3.95;;
1567;SDS011;777;47.156;8.326;2023-04-05T07:44:42;6.28;;;3.97;;
1567;SDS011;777;47.156;8.326;2023-04-05T07:47:08;7.97;;;4.40;;
1567;SDS011;777;47.156;8.326;2023-04-05T07:49:36;5.35;;;3.90;;
1567;SDS011;777;47.156;8.326;2023-04-05T07:52:03;6.90;;;4.40;;
1567;SDS011;777;47.156;8.326;2023-04-05T07:54:31;6.03;;;5.00;;
1567;SDS011;777;47.156;8.326;2023-04-05T07:56:58;6.93;;;4.55;;
1567;SDS011;777;47.156;8.326;2023-04-05T07:59:28;8.10;;;4.75;;
1567;SDS011;777;47.156;8.326;2023-04-05T08:01:55;6.75;;;4.80;;
1567;SDS011;777;47.156;8.326;2023-04-05T08:04:22;7.38;;;4.80;;
1567;SDS011;777;47.156;8.326;2023-04-05T08:06:50;7.95;;;4.95;;
1567;SDS011;777;47.156;8.326;2023-04-05T08:09:17;6.78;;;4.88;;
1567;SDS011;777;47.156;8.326;2023-04-05T08:11:44;6.68;;;4.55;;
1567;SDS011;777;47.156;8.326;2023-04-05T08:14:11;6.55;;;4.50;;
1567;SDS011;777;47.156;8.326;2023-04-05T08:16:40;7.35;;;5.25;;
1567;SDS011;777;47.156;8.326;2023-04-05T08:19:08;6.93;;;4.60;;
1567;SDS011;777;47.156;8.326;2023-04-05T08:21:35;6.50;;;4.72;;
1567;SDS011;777;47.156;8.326;2023-04-05T08:24:02;10.55;;;5.32;;
1567;SDS011;777;47.156;8.326;2023-04-05T08:26:29;7.03;;;4.68;;
1567;SDS011;777;47.156;8.326;2023-04-05T08:28:56;6.38;;;4.53;;
1567;SDS011;777;47.156;8.326;2023-04-05T08:31:23;6.25;;;4.78;;
1567;SDS011;777;47.156;8.326;2023-04-05T08:33:51;7.78;;;4.78;;
1567;SDS011;777;47.156;8.326;2023-04-05T08:36:18;6.63;;;4.60;;
1567;SDS011;777;47.156;8.326;2023-04-05T08:38:45;6.50;;;4.57;;
1567;SDS011;777;47.156;8.326;2023-04-05T08:41:13;6.30;;;4.57;;
1567;SDS011;777;47.156;8.326;2023-04-05T08:43:46;7.82;;;4.45;;
1567;SDS011;777;47.156;8.326;2023-04-05T08:46:20;6.18;;;4.32;;
1567;SDS011;777;47.156;8.326;2023-04-05T08:48:48;6.18;;;4.20;;
1567;SDS011;777;47.156;8.326;2023-04-05T08:51:18;4.65;;;3.88;;
1567;SDS011;777;47.156;8.326;2023-04-05T08:53:46;6.57;;;4.55;;
1567;SDS011;777;47.156;8.326;2023-04-05T08:56:14;5.55;;;4.40;;
1567;SDS011;777;47.156;8.326;2023-04-05T08:58:46;5.20;;;4.32;;
1567;SDS011;777;47.156;8.326;2023-04-05T09:01:18;5.95;;;4.68;;
1567;SDS011;777;47.156;8.326;2023-04-05T09:03:45;5.90;;;4.07;;
1567;SDS011;777;47.156;8.326;2023-04-05T09:06:15;5.65;;;4.07;;
1567;SDS011;777;47.156;8.326;2023-04-05T09:08:44;6.70;;;3.90;;
1567;SDS011;777;47.156;8.326;2023-04-05T09:11:12;5.13;;;3.75;;
1567;SDS011;777;47.156;8.326;2023-04-05T09:13:40;6.07;;;3.92;;
1567;SDS011;777;47.156;8.326;2023-04-05T09:16:07;6.18;;;3.50;;
1567;SDS011;777;47.156;8.326;2023-04-05T09:18:35;5.35;;;3.75;;
1567;SDS011;777;47.156;8.326;2023-04-05T09:21:02;5.20;;;3.55;;
1567;SDS011;777;47.156;8.326;2023-04-05T09:23:30;5.07;;;3.40;;
1567;SDS011;777;47.156;8.326;2023-04-05T09:25:59;5.30;;;3.60;;
1567;SDS011;777;47.156;8.326;2023-04-05T09:28:38;5.57;;;3.85;;
1567;SDS011;777;47.156;8.326;2023-04-05T09:31:07;4.25;;;3.20;;
1567;SDS011;777;47.156;8.326;2023-04-05T09:33:34;5.20;;;3.47;;
1567;SDS011;777;47.156;8.326;2023-04-05T09:36:01;5.18;;;3.45;;
1567;SDS011;777;47.156;8.326;2023-04-05T09:38:41;5.63;;;3.60;;
1567;SDS011;777;47.156;8.326;2023-04-05T09:41:10;6.28;;;3.65;;
1567;SDS011;777;47.156;8.326;2023-04-05T09:43:38;4.10;;;3.22;;
1567;SDS011;777;47.156;8.326;2023-04-05T09:46:06;6.72;;;3.67;;
1567;SDS011;777;47.156;8.326;2023-04-05T09:48:44;5.97;;;3.63;;
1567;SDS011;777;47.156;8.326;2023-04-05T09:51:12;5.57;;;3.42;;
1567;SDS011;777;47.156;8.326;2023-04-05T09:53:55;5.18;;;3.50;;
1567;SDS011;777;47.156;8.326;2023-04-05T09:56:24;4.45;;;3.53;;
1567;SDS011;777;47.156;8.326;2023-04-05T09:58:51;5.20;;;3.40;;
1567;SDS011;777;47.156;8.326;2023-04-05T10:01:19;4.68;;;3.55;;
1567;SDS011;777;47.156;8.326;2023-04-05T10:03:46;3.90;;;3.50;;
1567;SDS011;777;47.156;8.326;2023-04-05T10:06:14;5.88;;;3.35;;
1567;SDS011;777;47.156;8.326;2023-04-05T10:08:41;5.85;;;3.33;;
1567;SDS011;777;47.156;8.326;2023-04-05T10:11:10;6.20;;;3.55;;
1567;SDS011;777;47.156;8.326;2023-04-05T10:13:39;4.45;;;3.60;;
1567;SDS011;777;47.156;8.326;2023-04-05T10:16:07;3.75;;;3.30;;
1567;SDS011;777;47.156;8.326;2023-04-05T10:18:39;5.88;;;3.33;;
1567;SDS011;777;47.156;8.326;2023-04-05T10:21:11;4.30;;;3.63;;
1567;SDS011;777;47.156;8.326;2023-04-05T10:23:45;4.88;;;3.60;;
1567;SDS011;777;47.156;8.326;2023-04-05T10:26:15;5.28;;;3.47;;
1567;SDS011;777;47.156;8.326;2023-04-05T10:28:51;4.63;;;3.42;;
1567;SDS011;777;47.156;8.326;2023-04-05T10:31:26;5.53;;;3.80;;
1567;SDS011;777;47.156;8.326;2023-04-05T10:33:59;5.45;;;3.90;;
1567;SDS011;777;47.156;8.326;2023-04-05T10:36:32;5.07;;;3.78;;
1567;SDS011;777;47.156;8.326;2023-04-05T10:39:07;5.45;;;3.60;;
1567;SDS011;777;47.156;8.326;2023-04-05T10:41:39;6.88;;;4.18;;
1567;SDS011;777;47.156;8.326;2023-04-05T10:44:10;4.47;;;3.65;;
1567;SDS011;777;47.156;8.326;2023-04-05T10:46:37;6.32;;;3.83;;
1567;SDS011;777;47.156;8.326;2023-04-05T10:49:07;5.18;;;3.58;;
1567;SDS011;777;47.156;8.326;2023-04-05T10:51:41;5.07;;;3.92;;
1567;SDS011;777;47.156;8.326;2023-04-05T10:54:09;5.60;;;4.00;;
1567;SDS011;777;47.156;8.326;2023-04-05T10:56:37;6.53;;;3.78;;
1567;SDS011;777;47.156;8.326;2023-04-05T10:59:05;5.80;;;3.80;;
1567;SDS011;777;47.156;8.326;2023-04-05T11:01:34;4.43;;;3.38;;
1567;SDS011;777;47.156;8.326;2023-04-05T11:04:09;4.95;;;3.17;;
1567;SDS011;777;47.156;8.326;2023-04-05T11:06:37;3.60;;;3.10;;
1567;SDS011;777;47.156;8.326;2023-04-05T11:09:08;4.63;;;3.67;;
1567;SDS011;777;47.156;8.326;2023-04-05T11:11:39;5.40;;;3.63;;
1567;SDS011;777;47.156;8.326;2023-04-05T11:14:16;6.47;;;2.90;;
1567;SDS011;777;47.156;8.326;2023-04-05T11:16:47;6.85;;;3.53;;
1567;SDS011;777;47.156;8.326;2023-04-05T11:19:17;6.72;;;3.33;;
1567;SDS011;777;47.156;8.326;2023-04-05T11:21:44;3.80;;;2.97;;
1567;SDS011;777;47.156;8.326;2023-04-05T11:24:12;6.20;;;3.20;;
1567;SDS011;777;47.156;8.326;2023-04-05T11:26:51;6.65;;;3.47;;
1567;SDS011;777;47.156;8.326;2023-04-05T11:32:16;6.13;;;3.90;;
1567;SDS011;777;47.156;8.326;2023-04-05T11:34:44;4.13;;;3.72;;
1567;SDS011;777;47.156;8.326;2023-04-05T11:37:23;6.45;;;3.88;;
1567;SDS011;777;47.156;8.326;2023-04-05T11:40:28;5.38;;;4.13;;
1567;SDS011;777;47.156;8.326;2023-04-05T11:42:57;7.78;;;3.75;;
1567;SDS011;777;47.156;8.326;2023-04-05T11:45:26;7.10;;;3.97;;
1567;SDS011;777;47.156;8.326;2023-04-05T11:47:56;5.60;;;3.85;;
1567;SDS011;777;47.156;8.326;2023-04-05T11:50:24;5.43;;;4.22;;
1567;SDS011;777;47.156;8.326;2023-04-05T11:53:09;6.60;;;4.30;;
1567;SDS011;777;47.156;8.326;2023-04-05T11:55:36;5.17;;;4.30;;
1567;SDS011;777;47.156;8.326;2023-04-05T11:58:10;6.68;;;4.47;;
1567;SDS011;777;47.156;8.326;2023-04-05T12:00:41;5.68;;;3.83;;
1567;SDS011;777;47.156;8.326;2023-04-05T12:03:13;5.28;;;3.45;;
1567;SDS011;777;47.156;8.326;2023-04-05T12:05:44;4.47;;;3.80;;
1567;SDS011;777;47.156;8.326;2023-04-05T12:08:15;5.25;;;3.60;;
1567;SDS011;777;47.156;8.326;2023-04-05T12:10:42;6.18;;;3.58;;
1567;SDS011;777;47.156;8.326;2023-04-05T12:13:10;5.93;;;3.40;;
1567;SDS011;777;47.156;8.326;2023-04-05T12:15:37;5.13;;;3.78;;
1567;SDS011;777;47.156;8.326;2023-04-05T12:18:12;4.03;;;3.60;;
1567;SDS011;777;47.156;8.326;2023-04-05T12:20:41;6.35;;;3.88;;
1567;SDS011;777;47.156;8.326;2023-04-05T12:23:09;4.95;;;3.50;;
1567;SDS011;777;47.156;8.326;2023-04-05T12:25:37;5.57;;;3.80;;
1567;SDS011;777;47.156;8.326;2023-04-05T12:28:04;5.05;;;3.50;;
1567;SDS011;777;47.156;8.326;2023-04-05T12:30:33;4.35;;;3.25;;
1567;SDS011;777;47.156;8.326;2023-04-05T12:33:06;4.03;;;3.03;;
1567;SDS011;777;47.156;8.326;2023-04-05T12:35:36;5.20;;;3.23;;
1567;SDS011;777;47.156;8.326;2023-04-05T12:38:04;6.80;;;3.38;;
1567;SDS011;777;47.156;8.326;2023-04-05T12:40:33;6.30;;;3.30;;
1567;SDS011;777;47.156;8.326;2023-04-05T12:43:01;3.92;;;2.97;;
1567;SDS011;777;47.156;8.326;2023-04-05T12:45:29;4.68;;;3.00;;
1567;SDS011;777;47.156;8.326;2023-04-05T12:48:03;3.38;;;2.78;;
1567;SDS011;777;47.156;8.326;2023-04-05T12:50:34;4.35;;;2.50;;
1567;SDS011;777;47.156;8.326;2023-04-05T12:53:07;5.45;;;2.40;;
1567;SDS011;777;47.156;8.326;2023-04-05T12:55:37;4.18;;;2.88;;
1567;SDS011;777;47.156;8.326;2023-04-05T12:58:08;3.72;;;2.80;;
1567;SDS011;777;47.156;8.326;2023-04-05T13:00:35;3.50;;;2.45;;
1567;SDS011;777;47.156;8.326;2023-04-05T13:03:02;4.05;;;2.70;;
1567;SDS011;777;47.156;8.326;2023-04-05T13:05:30;4.28;;;2.60;;
1567;SDS011;777;47.156;8.326;2023-04-05T13:07:59;4.45;;;3.00;;
1567;SDS011;777;47.156;8.326;2023-04-05T13:10:26;3.10;;;2.80;;
1567;SDS011;777;47.156;8.326;2023-04-05T13:12:53;3.53;;;2.53;;
1567;SDS011;777;47.156;8.326;2023-04-05T13:15:20;5.00;;;3.13;;
1567;SDS011;777;47.156;8.326;2023-04-05T13:17:47;4.07;;;2.63;;
1567;SDS011;777;47.156;8.326;2023-04-05T13:20:16;4.18;;;3.47;;
1567;SDS011;777;47.156;8.326;2023-04-05T13:22:43;4.18;;;2.35;;
1567;SDS011;777;47.156;8.326;2023-04-05T13:25:12;2.80;;;2.53;;
1567;SDS011;777;47.156;8.326;2023-04-05T13:27:40;3.15;;;2.60;;
1567;SDS011;777;47.156;8.326;2023-04-05T13:30:07;4.22;;;2.60;;
1567;SDS011;777;47.156;8.326;2023-04-05T13:32:35;2.97;;;2.40;;
1567;SDS011;777;47.156;8.326;2023-04-05T13:35:02;2.95;;;2.63;;
1567;SDS011;777;47.156;8.326;2023-04-05T13:37:30;2.90;;;2.58;;
1567;SDS011;777;47.156;8.326;2023-04-05T13:39:57;3.70;;;2.33;;
1567;SDS011;777;47.156;8.326;2023-04-05T13:42:25;3.70;;;2.40;;
1567;SDS011;777;47.156;8.326;2023-04-05T13:44:52;3.25;;;2.40;;
1567;SDS011;777;47.156;8.326;2023-04-05T13:47:19;2.92;;;2.22;;
1567;SDS011;777;47.156;8.326;2023-04-05T13:49:46;4.55;;;2.47;;
1567;SDS011;777;47.156;8.326;2023-04-05T13:52:14;3.63;;;2.45;;
1567;SDS011;777;47.156;8.326;2023-04-05T13:54:42;2.95;;;2.40;;
1567;SDS011;777;47.156;8.326;2023-04-05T13:57:09;2.65;;;1.98;;
1567;SDS011;777;47.156;8.326;2023-04-05T13:59:39;3.10;;;2.60;;
1567;SDS011;777;47.156;8.326;2023-04-05T14:02:06;2.53;;;2.30;;
1567;SDS011;777;47.156;8.326;2023-04-05T14:04:35;2.15;;;1.92;;
1567;SDS011;777;47.156;8.326;2023-04-05T14:07:03;2.22;;;2.03;;
1567;SDS011;777;47.156;8.326;2023-04-05T14:09:30;3.63;;;2.45;;
1567;SDS011;777;47.156;8.326;2023-04-05T14:11:57;3.63;;;2.50;;
1567;SDS011;777;47.156;8.326;2023-04-05T14:14:25;2.63;;;2.42;;
1567;SDS011;777;47.156;8.326;2023-04-05T14:16:54;2.65;;;2.45;;
1567;SDS011;777;47.156;8.326;2023-04-05T14:19:21;6.60;;;2.72;;
1567;SDS011;777;47.156;8.326;2023-04-05T14:21:48;2.50;;;2.22;;
1567;SDS011;777;47.156;8.326;2023-04-05T14:24:16;2.47;;;2.13;;
1567;SDS011;777;47.156;8.326;2023-04-05T14:26:44;2.65;;;2.13;;
1567;SDS011;777;47.156;8.326;2023-04-05T14:29:13;3.22;;;2.30;;
1567;SDS011;777;47.156;8.326;2023-04-05T14:31:41;2.30;;;2.10;;
1567;SDS011;777;47.156;8.326;2023-04-05T14:34:10;3.25;;;2.08;;
1567;SDS011;777;47.156;8.326;2023-04-05T14:36:37;4.05;;;2.22;;
1567;SDS011;777;47.156;8.326;2023-04-05T14:39:04;2.85;;;2.10;;
1567;SDS011;777;47.156;8.326;2023-04-05T14:41:31;2.70;;;2.28;;
1567;SDS011;777;47.156;8.326;2023-04-05T14:43:59;2.67;;;2.00;;
1567;SDS011;777;47.156;8.326;2023-04-05T14:46:26;2.40;;;2.13;;
1567;SDS011;777;47.156;8.326;2023-04-05T14:48:53;2.63;;;1.98;;
1567;SDS011;777;47.156;8.326;2023-04-05T14:51:22;2.45;;;2.00;;
1567;SDS011;777;47.156;8.326;2023-04-05T14:53:49;3.03;;;2.30;;
1567;SDS011;777;47.156;8.326;2023-04-05T14:56:17;2.60;;;2.15;;
1567;SDS011;777;47.156;8.326;2023-04-05T14:58:44;3.17;;;2.30;;
1567;SDS011;777;47.156;8.326;2023-04-05T15:01:11;2.70;;;2.00;;
1567;SDS011;777;47.156;8.326;2023-04-05T15:03:38;2.35;;;2.15;;
1567;SDS011;777;47.156;8.326;2023-04-05T15:06:06;3.47;;;2.33;;
1567;SDS011;777;47.156;8.326;2023-04-05T15:08:34;4.82;;;2.20;;
1567;SDS011;777;47.156;8.326;2023-04-05T15:11:01;4.07;;;2.15;;
1567;SDS011;777;47.156;8.326;2023-04-05T15:13:30;2.22;;;2.03;;
1567;SDS011;777;47.156;8.326;2023-04-05T15:15:58;5.00;;;2.42;;
1567;SDS011;777;47.156;8.326;2023-04-05T15:18:25;4.32;;;2.50;;
1567;SDS011;777;47.156;8.326;2023-04-05T15:20:52;2.88;;;2.10;;
1567;SDS011;777;47.156;8.326;2023-04-05T15:23:19;2.97;;;2.22;;
1567;SDS011;777;47.156;8.326;2023-04-05T15:25:48;2.30;;;1.80;;
1567;SDS011;777;47.156;8.326;2023-04-05T15:28:15;2.78;;;2.20;;
1567;SDS011;777;47.156;8.326;2023-04-05T15:30:42;2.30;;;2.10;;
1567;SDS011;777;47.156;8.326;2023-04-05T15:33:10;2.92;;;2.10;;
1567;SDS011;777;47.156;8.326;2023-04-05T15:35:37;2.72;;;2.22;;
1567;SDS011;777;47.156;8.326;2023-04-05T15:38:04;4.13;;;2.35;;
1567;SDS011;777;47.156;8.326;2023-04-05T15:40:31;2.60;;;2.22;;
1567;SDS011;777;47.156;8.326;2023-04-05T15:43:00;2.72;;;2.08;;
1567;SDS011;777;47.156;8.326;2023-04-05T15:45:27;2.92;;;2.10;;
1567;SDS011;777;47.156;8.326;2023-04-05T15:47:54;2.92;;;1.60;;